sensor_id;sensor_type;location;lat;lon;timestamp;pressure;altitude;pressure_sealevel;temperature;humidity
59513;BME280;45330;51.634;5.562;2024-03-06T00:02:13;101694.50;;;3.39;100.00
59513;BME280;45330;51.634;5.562;2024-03-06T00:04:39;101697.72;;;3.34;100.00
59513;BME280;45330;51.634;5.562;2024-03-06T00:07:04;101703.72;;;3.34;100.00
59513;BME280;45330;51.634;5.562;2024-03-06T00:09:30;101704.38;;;3.29;100.00
59513;BME280;45330;51.634;5.562;2024-03-06T00:11:56;101711.25;;;3.28;100.00
59513;BME280;45330;51.634;5.562;2024-03-06T00:14:22;101704.16;;;3.22;100.00
59513;BME280;45330;51.634;5.562;2024-03-06T00:16:48;101697.16;;;3.18;100.00
59513;BME280;45330;51.634;5.562;2024-03-06T00:19:16;101712.69;;;3.21;100.00
59513;BME280;45330;51.634;5.562;2024-03-06T00:21:41;101712.63;;;3.20;100.00
59513;BME280;45330;51.634;5.562;2024-03-06T00:24:07;101714.34;;;3.19;100.00
59513;BME280;45330;51.634;5.562;2024-03-06T00:26:32;101715.97;;;3.17;100.00
59513;BME280;45330;51.634;5.562;2024-03-06T00:28:57;101717.63;;;3.15;100.00
59513;BME280;45330;51.634;5.562;2024-03-06T00:31:23;101719.19;;;3.12;100.00
59513;BME280;45330;51.634;5.562;2024-03-06T00:33:48;101706.09;;;3.05;100.00
59513;BME280;45330;51.634;5.562;2024-03-06T00:36:13;101712.97;;;3.06;100.00
59513;BME280;45330;51.634;5.562;2024-03-06T00:38:39;101704.97;;;2.99;100.00
59513;BME280;45330;51.634;5.562;2024-03-06T00:41:04;101717.06;;;3.01;100.00
59513;BME280;45330;51.634;5.562;2024-03-06T00:43:30;101722.91;;;2.97;100.00
59513;BME280;45330;51.634;5.562;2024-03-06T00:45:56;101722.91;;;2.97;100.00
59513;BME280;45330;51.634;5.562;2024-03-06T00:48:21;101723.72;;;2.96;100.00
59513;BME280;45330;51.634;5.562;2024-03-06T00:50:47;101736.56;;;2.96;100.00
59513;BME280;45330;51.634;5.562;2024-03-06T00:53:12;101733.94;;;2.95;100.00
59513;BME280;45330;51.634;5.562;2024-03-06T00:55:37;101734.88;;;2.97;100.00
59513;BME280;45330;51.634;5.562;2024-03-06T00:58:03;101738.41;;;2.99;100.00
59513;BME280;45330;51.634;5.562;2024-03-06T01:00:29;101742.72;;;3.00;100.00
59513;BME280;45330;51.634;5.562;2024-03-06T01:02:55;101744.59;;;3.04;100.00
59513;BME280;45330;51.634;5.562;2024-03-06T01:05:20;101742.91;;;3.04;100.00
59513;BME280;45330;51.634;5.562;2024-03-06T01:07:45;101746.34;;;3.05;100.00
59513;BME280;45330;51.634;5.562;2024-03-06T01:10:11;101754.91;;;3.04;100.00
59513;BME280;45330;51.634;5.562;2024-03-06T01:12:36;101736.41;;;2.91;100.00
59513;BME280;45330;51.634;5.562;2024-03-06T01:15:02;101747.19;;;3.04;100.00
59513;BME280;45330;51.634;5.562;2024-03-06T01:17:28;101753.94;;;3.02;100.00
59513;BME280;45330;51.634;5.562;2024-03-06T01:19:54;101752.13;;;2.99;100.00
59513;BME280;45330;51.634;5.562;2024-03-06T01:22:19;101758.84;;;2.96;100.00
59513;BME280;45330;51.634;5.562;2024-03-06T01:24:45;101761.31;;;2.92;100.00
59513;BME280;45330;51.634;5.562;2024-03-06T01:27:15;101765.31;;;2.86;100.00
59513;BME280;45330;51.634;5.562;2024-03-06T01:29:41;101763.44;;;2.82;100.00
59513;BME280;45330;51.634;5.562;2024-03-06T01:32:06;101765.88;;;2.79;100.00
59513;BME280;45330;51.634;5.562;2024-03-06T01:34:32;101766.63;;;2.76;100.00
59513;BME280;45330;51.634;5.562;2024-03-06T01:36:57;101762.19;;;2.72;100.00
59513;BME280;45330;51.634;5.562;2024-03-06T01:39:22;101762.97;;;2.71;100.00
59513;BME280;45330;51.634;5.562;2024-03-06T01:41:50;101774.91;;;2.69;100.00
59513;BME280;45330;51.634;5.562;2024-03-06T01:44:16;101775.78;;;2.69;100.00
59513;BME280;45330;51.634;5.562;2024-03-06T01:46:44;101773.31;;;2.72;100.00
59513;BME280;45330;51.634;5.562;2024-03-06T01:49:11;101769.84;;;2.70;100.00
59513;BME280;45330;51.634;5.562;2024-03-06T01:51:39;101776.84;;;2.74;100.00
59513;BME280;45330;51.634;5.562;2024-03-06T01:54:06;101774.34;;;2.76;100.00
59513;BME280;45330;51.634;5.562;2024-03-06T01:56:33;101789.38;;;2.88;100.00
59513;BME280;45330;51.634;5.562;2024-03-06T01:59:00;101774.97;;;2.91;100.00
59513;BME280;45330;51.634;5.562;2024-03-06T02:01:29;101781.34;;;3.01;100.00
59513;BME280;45330;51.634;5.562;2024-03-06T02:03:55;101790.88;;;3.04;100.00
59513;BME280;45330;51.634;5.562;2024-03-06T02:06:21;101792.75;;;3.08;100.00
59513;BME280;45330;51.634;5.562;2024-03-06T02:08:47;101792.88;;;3.11;100.00
59513;BME280;45330;51.634;5.562;2024-03-06T02:11:12;101789.41;;;3.11;100.00
59513;BME280;45330;51.634;5.562;2024-03-06T02:13:39;101796.22;;;3.08;100.00
59513;BME280;45330;51.634;5.562;2024-03-06T02:16:04;101797.13;;;3.11;100.00
59513;BME280;45330;51.634;5.562;2024-03-06T02:18:30;101807.34;;;3.09;100.00
59513;BME280;45330;51.634;5.562;2024-03-06T02:20:56;101808.16;;;3.08;100.00
59513;BME280;45330;51.634;5.562;2024-03-06T02:23:22;101798.03;;;3.11;100.00
59513;BME280;45330;51.634;5.562;2024-03-06T02:25:48;101799.66;;;3.09;100.00
59513;BME280;45330;51.634;5.562;2024-03-06T02:28:13;101794.50;;;3.09;100.00
59513;BME280;45330;51.634;5.562;2024-03-06T02:30:39;101803.13;;;3.09;100.00
59513;BME280;45330;51.634;5.562;2024-03-06T02:33:05;101798.03;;;3.11;100.00
59513;BME280;45330;51.634;5.562;2024-03-06T02:35:32;101801.41;;;3.10;100.00
59513;BME280;45330;51.634;5.562;2024-03-06T02:38:00;101803.97;;;3.10;100.00
59513;BME280;45330;51.634;5.562;2024-03-06T02:40:26;101786.28;;;2.97;100.00
59513;BME280;45330;51.634;5.562;2024-03-06T02:42:51;101810.06;;;3.12;100.00
59513;BME280;45330;51.634;5.562;2024-03-06T02:45:16;101806.78;;;3.16;100.00
59513;BME280;45330;51.634;5.562;2024-03-06T02:47:42;101810.38;;;3.20;100.00
59513;BME280;45330;51.634;5.562;2024-03-06T02:50:08;101807.16;;;3.25;100.00
59513;BME280;45330;51.634;5.562;2024-03-06T02:52:33;101802.13;;;3.29;100.00
59513;BME280;45330;51.634;5.562;2024-03-06T02:54:58;101798.88;;;3.33;100.00
59513;BME280;45330;51.634;5.562;2024-03-06T02:57:28;101797.03;;;3.30;100.00
59513;BME280;45330;51.634;5.562;2024-03-06T02:59:55;101806.63;;;3.34;100.00
59513;BME280;45330;51.634;5.562;2024-03-06T03:02:21;101792.22;;;3.38;100.00
59513;BME280;45330;51.634;5.562;2024-03-06T03:04:46;101810.22;;;3.38;100.00
59513;BME280;45330;51.634;5.562;2024-03-06T03:07:11;101796.50;;;3.39;100.00
59513;BME280;45330;51.634;5.562;2024-03-06T03:09:37;101798.28;;;3.40;100.00
59513;BME280;45330;51.634;5.562;2024-03-06T03:12:03;101807.75;;;3.41;100.00
59513;BME280;45330;51.634;5.562;2024-03-06T03:14:28;101806.09;;;3.43;100.00
59513;BME280;45330;51.634;5.562;2024-03-06T03:16:54;101802.84;;;3.47;100.00
59513;BME280;45330;51.634;5.562;2024-03-06T03:19:19;101814.94;;;3.50;100.00
59513;BME280;45330;51.634;5.562;2024-03-06T03:21:45;101810.81;;;3.53;100.00
59513;BME280;45330;51.634;5.562;2024-03-06T03:24:10;101801.50;;;3.57;100.00
59513;BME280;45330;51.634;5.562;2024-03-06T03:26:35;101811.03;;;3.59;100.00
59513;BME280;45330;51.634;5.562;2024-03-06T03:29:02;101811.09;;;3.61;100.00
59513;BME280;45330;51.634;5.562;2024-03-06T03:31:28;101803.44;;;3.63;100.00
59513;BME280;45330;51.634;5.562;2024-03-06T03:33:53;101806.91;;;3.63;100.00
59513;BME280;45330;51.634;5.562;2024-03-06T03:36:18;101807.75;;;3.64;100.00
59513;BME280;45330;51.634;5.562;2024-03-06T03:38:44;101799.13;;;3.62;100.00
59513;BME280;45330;51.634;5.562;2024-03-06T03:41:10;101813.88;;;3.66;100.00
59513;BME280;45330;51.634;5.562;2024-03-06T03:43:38;101815.66;;;3.68;100.00
59513;BME280;45330;51.634;5.562;2024-03-06T03:46:04;101816.50;;;3.67;100.00
59513;BME280;45330;51.634;5.562;2024-03-06T03:48:31;101816.44;;;3.66;100.00
59513;BME280;45330;51.634;5.562;2024-03-06T03:50:56;101814.63;;;3.63;100.00
59513;BME280;45330;51.634;5.562;2024-03-06T03:53:21;101818.00;;;3.62;100.00
59513;BME280;45330;51.634;5.562;2024-03-06T03:55:47;101819.47;;;3.55;100.00
59513;BME280;45330;51.634;5.562;2024-03-06T03:58:12;101827.19;;;3.55;100.00
59513;BME280;45330;51.634;5.562;2024-03-06T04:00:40;101828.00;;;3.54;100.00
59513;BME280;45330;51.634;5.562;2024-03-06T04:03:06;101840.84;;;3.54;100.00
59513;BME280;45330;51.634;5.562;2024-03-06T04:05:32;101826.44;;;3.58;100.00
59513;BME280;45330;51.634;5.562;2024-03-06T04:07:57;101823.78;;;3.56;100.00
59513;BME280;45330;51.634;5.562;2024-03-06T04:10:24;101842.03;;;3.63;100.00
59513;BME280;45330;51.634;5.562;2024-03-06T04:12:49;101829.31;;;3.66;100.00
59513;BME280;45330;51.634;5.562;2024-03-06T04:15:14;101829.38;;;3.67;100.00
59513;BME280;45330;51.634;5.562;2024-03-06T04:17:40;101832.03;;;3.70;100.00
59513;BME280;45330;51.634;5.562;2024-03-06T04:20:08;101827.72;;;3.69;100.00
59513;BME280;45330;51.634;5.562;2024-03-06T04:22:37;101827.59;;;3.66;100.00
59513;BME280;45330;51.634;5.562;2024-03-06T04:25:03;101829.41;;;3.69;100.00
59513;BME280;45330;51.634;5.562;2024-03-06T04:27:29;101834.47;;;3.66;100.00
59513;BME280;45330;51.634;5.562;2024-03-06T04:29:54;101829.22;;;3.64;100.00
59513;BME280;45330;51.634;5.562;2024-03-06T04:32:20;101814.09;;;3.49;100.00
59513;BME280;45330;51.634;5.562;2024-03-06T04:34:45;101834.09;;;3.56;100.00
59513;BME280;45330;51.634;5.562;2024-03-06T04:37:11;101839.06;;;3.52;100.00
59513;BME280;45330;51.634;5.562;2024-03-06T04:39:36;101839.88;;;3.51;100.00
59513;BME280;45330;51.634;5.562;2024-03-06T04:42:02;101845.03;;;3.51;100.00
59513;BME280;45330;51.634;5.562;2024-03-06T04:44:28;101850.22;;;3.52;100.00
59513;BME280;45330;51.634;5.562;2024-03-06T04:46:53;101848.50;;;3.53;100.00
59513;BME280;45330;51.634;5.562;2024-03-06T04:49:18;101853.66;;;3.53;100.00
59513;BME280;45330;51.634;5.562;2024-03-06T04:51:44;101859.59;;;3.50;100.00
59513;BME280;45330;51.634;5.562;2024-03-06T04:54:09;101856.81;;;3.46;100.00
59513;BME280;45330;51.634;5.562;2024-03-06T04:56:34;101866.19;;;3.43;100.00
59513;BME280;45330;51.634;5.562;2024-03-06T04:59:00;101861.84;;;3.42;100.00
59513;BME280;45330;51.634;5.562;2024-03-06T05:01:29;101877.16;;;3.39;100.00
59513;BME280;45330;51.634;5.562;2024-03-06T05:03:54;101875.16;;;3.32;100.00
59513;BME280;45330;51.634;5.562;2024-03-06T05:06:22;101879.25;;;3.27;100.00
59513;BME280;45330;51.634;5.562;2024-03-06T05:08:48;101873.53;;;3.13;100.00
59513;BME280;45330;51.634;5.562;2024-03-06T05:11:13;101877.53;;;3.06;100.00
59513;BME280;45330;51.634;5.562;2024-03-06T05:13:38;101879.69;;;2.96;100.00
59513;BME280;45330;51.634;5.562;2024-03-06T05:16:05;101889.56;;;2.86;100.00
59513;BME280;45330;51.634;5.562;2024-03-06T05:18:30;101896.97;;;2.79;100.00
59513;BME280;45330;51.634;5.562;2024-03-06T05:20:56;101895.81;;;2.72;100.00
59513;BME280;45330;51.634;5.562;2024-03-06T05:23:21;101903.25;;;2.66;100.00
59513;BME280;45330;51.634;5.562;2024-03-06T05:25:48;101916.19;;;2.67;100.00
59513;BME280;45330;51.634;5.562;2024-03-06T05:28:13;101917.31;;;2.74;100.00
59513;BME280;45330;51.634;5.562;2024-03-06T05:30:39;101921.84;;;2.80;100.00
59513;BME280;45330;51.634;5.562;2024-03-06T05:33:04;101914.13;;;2.80;100.00
59513;BME280;45330;51.634;5.562;2024-03-06T05:35:30;101916.69;;;2.80;100.00
59513;BME280;45330;51.634;5.562;2024-03-06T05:37:55;101922.75;;;2.80;100.00
59513;BME280;45330;51.634;5.562;2024-03-06T05:40:22;101927.94;;;2.82;100.00
59513;BME280;45330;51.634;5.562;2024-03-06T05:42:47;101921.09;;;2.82;100.00
59513;BME280;45330;51.634;5.562;2024-03-06T05:45:12;101924.69;;;2.86;100.00
59513;BME280;45330;51.634;5.562;2024-03-06T05:47:39;101929.84;;;2.86;100.00
59513;BME280;45330;51.634;5.562;2024-03-06T05:50:13;101932.19;;;2.81;100.00
59513;BME280;45330;51.634;5.562;2024-03-06T05:52:38;101938.97;;;2.79;100.00
59513;BME280;45330;51.634;5.562;2024-03-06T05:55:04;101940.59;;;2.77;100.00
59513;BME280;45330;51.634;5.562;2024-03-06T05:57:31;101945.59;;;2.74;100.00
59513;BME280;45330;51.634;5.562;2024-03-06T05:59:57;101951.41;;;2.70;100.00
59513;BME280;45330;51.634;5.562;2024-03-06T06:02:22;101949.50;;;2.66;100.00
59513;BME280;45330;51.634;5.562;2024-03-06T06:04:47;101969.31;;;2.68;100.00
59513;BME280;45330;51.634;5.562;2024-03-06T06:07:13;101964.13;;;2.67;100.00
59513;BME280;45330;51.634;5.562;2024-03-06T06:09:38;101963.13;;;2.63;100.00
59513;BME280;45330;51.634;5.562;2024-03-06T06:12:04;101950.59;;;2.51;100.00
59513;BME280;45330;51.634;5.562;2024-03-06T06:14:29;101968.88;;;2.57;100.00
59513;BME280;45330;51.634;5.562;2024-03-06T06:16:56;101971.16;;;2.51;100.00
59513;BME280;45330;51.634;5.562;2024-03-06T06:19:21;101976.88;;;2.46;100.00
59513;BME280;45330;51.634;5.562;2024-03-06T06:21:47;101976.81;;;2.44;100.00
59513;BME280;45330;51.634;5.562;2024-03-06T06:24:14;101981.69;;;2.38;100.00
59513;BME280;45330;51.634;5.562;2024-03-06T06:26:39;101984.94;;;2.34;100.00
59513;BME280;45330;51.634;5.562;2024-03-06T06:29:05;101960.72;;;2.11;100.00
59513;BME280;45330;51.634;5.562;2024-03-06T06:31:30;101987.66;;;2.19;100.00
59513;BME280;45330;51.634;5.562;2024-03-06T06:33:56;101990.16;;;2.17;100.00
59513;BME280;45330;51.634;5.562;2024-03-06T06:36:22;101993.44;;;2.15;100.00
59513;BME280;45330;51.634;5.562;2024-03-06T06:38:48;101991.59;;;2.12;100.00
59513;BME280;45330;51.634;5.562;2024-03-06T06:41:14;101995.06;;;2.13;100.00
59513;BME280;45330;51.634;5.562;2024-03-06T06:43:40;102002.78;;;2.13;100.00
59513;BME280;45330;51.634;5.562;2024-03-06T06:46:07;102002.47;;;2.06;100.00
59513;BME280;45330;51.634;5.562;2024-03-06T06:48:32;102009.31;;;2.06;100.00
59513;BME280;45330;51.634;5.562;2024-03-06T06:51:02;102003.72;;;1.97;100.00
59513;BME280;45330;51.634;5.562;2024-03-06T06:53:31;102030.44;;;2.00;100.00
59513;BME280;45330;51.634;5.562;2024-03-06T06:55:58;102023.19;;;1.92;100.00
59513;BME280;45330;51.634;5.562;2024-03-06T06:58:23;102032.47;;;1.89;100.00
59513;BME280;45330;51.634;5.562;2024-03-06T07:00:49;102030.56;;;1.85;100.00
59513;BME280;45330;51.634;5.562;2024-03-06T07:03:14;102033.13;;;1.85;100.00
59513;BME280;45330;51.634;5.562;2024-03-06T07:05:40;102027.91;;;1.84;100.00
59513;BME280;45330;51.634;5.562;2024-03-06T07:08:07;102017.94;;;1.72;100.00
59513;BME280;45330;51.634;5.562;2024-03-06T07:10:33;102038.78;;;1.78;100.00
59513;BME280;45330;51.634;5.562;2024-03-06T07:13:01;102047.44;;;1.80;100.00
59513;BME280;45330;51.634;5.562;2024-03-06T07:15:26;102046.31;;;1.75;100.00
59513;BME280;45330;51.634;5.562;2024-03-06T07:17:51;102050.81;;;1.79;100.00
59513;BME280;45330;51.634;5.562;2024-03-06T07:20:17;102046.72;;;1.83;100.00
59513;BME280;45330;51.634;5.562;2024-03-06T07:22:42;102060.94;;;1.94;100.00
59513;BME280;45330;51.634;5.562;2024-03-06T07:25:07;102064.84;;;2.04;100.00
59513;BME280;45330;51.634;5.562;2024-03-06T07:27:33;102065.94;;;2.09;100.00
59513;BME280;45330;51.634;5.562;2024-03-06T07:29:58;102066.25;;;2.15;100.00
59513;BME280;45330;51.634;5.562;2024-03-06T07:32:24;102072.47;;;2.20;100.00
59513;BME280;45330;51.634;5.562;2024-03-06T07:34:50;102077.25;;;2.31;100.00
59513;BME280;45330;51.634;5.562;2024-03-06T07:37:15;102078.19;;;2.33;100.00
59513;BME280;45330;51.634;5.562;2024-03-06T07:39:41;102082.38;;;2.31;100.00
59513;BME280;45330;51.634;5.562;2024-03-06T07:42:06;102084.13;;;2.32;100.00
59513;BME280;45330;51.634;5.562;2024-03-06T07:44:32;102082.66;;;2.37;100.00
59513;BME280;45330;51.634;5.562;2024-03-06T07:46:57;102083.00;;;2.45;100.00
59513;BME280;45330;51.634;5.562;2024-03-06T07:49:22;102089.19;;;2.48;100.00
59513;BME280;45330;51.634;5.562;2024-03-06T07:51:51;102089.25;;;2.50;100.00
59513;BME280;45330;51.634;5.562;2024-03-06T07:54:17;102093.22;;;2.61;100.00
59513;BME280;45330;51.634;5.562;2024-03-06T07:56:42;102087.78;;;2.73;100.00
59513;BME280;45330;51.634;5.562;2024-03-06T07:59:08;102083.72;;;2.78;100.00
59513;BME280;45330;51.634;5.562;2024-03-06T08:01:34;102099.50;;;2.86;100.00
59513;BME280;45330;51.634;5.562;2024-03-06T08:04:00;102094.75;;;2.95;100.00
59513;BME280;45330;51.634;5.562;2024-03-06T08:06:25;102090.72;;;3.20;100.00
59513;BME280;45330;51.634;5.562;2024-03-06T08:08:52;102096.63;;;3.37;100.00
59513;BME280;45330;51.634;5.562;2024-03-06T08:11:17;102088.69;;;3.52;100.00
59513;BME280;45330;51.634;5.562;2024-03-06T08:13:43;102104.28;;;3.76;100.00
59513;BME280;45330;51.634;5.562;2024-03-06T08:16:08;102110.59;;;3.83;100.00
59513;BME280;45330;51.634;5.562;2024-03-06T08:18:34;102110.78;;;3.87;100.00
59513;BME280;45330;51.634;5.562;2024-03-06T08:21:01;102104.66;;;3.85;100.00
59513;BME280;45330;51.634;5.562;2024-03-06T08:23:26;102114.59;;;3.97;100.00
59513;BME280;45330;51.634;5.562;2024-03-06T08:25:52;102124.53;;;4.09;100.00
59513;BME280;45330;51.634;5.562;2024-03-06T08:28:20;102124.78;;;4.15;100.00
59513;BME280;45330;51.634;5.562;2024-03-06T08:30:46;102128.56;;;4.23;100.00
59513;BME280;45330;51.634;5.562;2024-03-06T08:33:11;102125.28;;;4.27;100.00
59513;BME280;45330;51.634;5.562;2024-03-06T08:35:37;102134.19;;;4.36;100.00
59513;BME280;45330;51.634;5.562;2024-03-06T08:38:05;102135.44;;;4.45;100.00
59513;BME280;45330;51.634;5.562;2024-03-06T08:40:31;102134.53;;;4.66;100.00
59513;BME280;45330;51.634;5.562;2024-03-06T08:42:57;102139.06;;;4.94;100.00
59513;BME280;45330;51.634;5.562;2024-03-06T08:45:23;102145.38;;;5.03;100.00
59513;BME280;45330;51.634;5.562;2024-03-06T08:47:49;102145.56;;;5.07;100.00
59513;BME280;45330;51.634;5.562;2024-03-06T08:50:15;102148.19;;;5.09;100.00
59513;BME280;45330;51.634;5.562;2024-03-06T08:52:41;102140.50;;;5.10;100.00
59513;BME280;45330;51.634;5.562;2024-03-06T08:55:07;102150.91;;;5.12;100.00
59513;BME280;45330;51.634;5.562;2024-03-06T08:57:33;102153.91;;;5.24;100.00
59513;BME280;45330;51.634;5.562;2024-03-06T08:59:59;102156.34;;;5.20;100.00
59513;BME280;45330;51.634;5.562;2024-03-06T09:02:25;102155.94;;;5.09;100.00
59513;BME280;45330;51.634;5.562;2024-03-06T09:04:51;102160.31;;;5.11;100.00
59513;BME280;45330;51.634;5.562;2024-03-06T09:07:20;102157.44;;;5.26;100.00
59513;BME280;45330;51.634;5.562;2024-03-06T09:09:49;102159.84;;;5.44;100.00
59513;BME280;45330;51.634;5.562;2024-03-06T09:12:15;102148.81;;;5.48;100.00
59513;BME280;45330;51.634;5.562;2024-03-06T09:14:41;102172.09;;;5.50;100.00
59513;BME280;45330;51.634;5.562;2024-03-06T09:17:06;102170.72;;;5.60;100.00
59513;BME280;45330;51.634;5.562;2024-03-06T09:19:37;102168.78;;;5.78;100.00
59513;BME280;45330;51.634;5.562;2024-03-06T09:22:02;102176.41;;;5.99;100.00
59513;BME280;45330;51.634;5.562;2024-03-06T09:24:28;102177.66;;;6.11;100.00
59513;BME280;45330;51.634;5.562;2024-03-06T09:26:53;102172.75;;;6.18;100.00
59513;BME280;45330;51.634;5.562;2024-03-06T09:29:19;102178.28;;;6.04;100.00
59513;BME280;45330;51.634;5.562;2024-03-06T09:31:45;102186.91;;;5.80;100.00
59513;BME280;45330;51.634;5.562;2024-03-06T09:34:11;102184.28;;;5.54;100.00
59513;BME280;45330;51.634;5.562;2024-03-06T09:36:39;102192.53;;;5.45;100.00
59513;BME280;45330;51.634;5.562;2024-03-06T09:39:04;102195.06;;;5.44;100.00
59513;BME280;45330;51.634;5.562;2024-03-06T09:41:30;102194.72;;;5.57;100.00
59513;BME280;45330;51.634;5.562;2024-03-06T09:43:55;102194.09;;;5.64;100.00
59513;BME280;45330;51.634;5.562;2024-03-06T09:46:21;102206.38;;;5.70;100.00
59513;BME280;45330;51.634;5.562;2024-03-06T09:48:47;102202.66;;;5.63;100.00
59513;BME280;45330;51.634;5.562;2024-03-06T09:51:14;102202.00;;;5.69;100.00
59513;BME280;45330;51.634;5.562;2024-03-06T09:53:40;102202.50;;;5.83;100.00
59513;BME280;45330;51.634;5.562;2024-03-06T09:56:07;102209.88;;;5.96;100.00
59513;BME280;45330;51.634;5.562;2024-03-06T09:58:33;102210.00;;;5.99;100.00
59513;BME280;45330;51.634;5.562;2024-03-06T10:01:00;102206.41;;;5.96;100.00
59513;BME280;45330;51.634;5.562;2024-03-06T10:03:28;102206.53;;;5.99;100.00
59513;BME280;45330;51.634;5.562;2024-03-06T10:05:54;102218.78;;;6.05;100.00
59513;BME280;45330;51.634;5.562;2024-03-06T10:08:21;102218.13;;;6.10;100.00
59513;BME280;45330;51.634;5.562;2024-03-06T10:10:49;102196.38;;;6.04;100.00
59513;BME280;45330;51.634;5.562;2024-03-06T10:13:16;102215.09;;;6.22;100.00
59513;BME280;45330;51.634;5.562;2024-03-06T10:15:42;102219.59;;;6.28;100.00
59513;BME280;45330;51.634;5.562;2024-03-06T10:18:20;102223.28;;;6.34;100.00
59513;BME280;45330;51.634;5.562;2024-03-06T10:20:45;102224.41;;;6.43;100.00
59513;BME280;45330;51.634;5.562;2024-03-06T10:23:11;102214.25;;;6.49;100.00
59513;BME280;45330;51.634;5.562;2024-03-06T10:25:37;102217.88;;;6.54;100.00
59513;BME280;45330;51.634;5.562;2024-03-06T10:28:10;102219.16;;;6.67;100.00
59513;BME280;45330;51.634;5.562;2024-03-06T10:30:40;102212.31;;;6.69;100.00
59513;BME280;45330;51.634;5.562;2024-03-06T10:33:13;102205.22;;;6.63;100.00
59513;BME280;45330;51.634;5.562;2024-03-06T10:35:41;102221.25;;;6.79;100.00
59513;BME280;45330;51.634;5.562;2024-03-06T10:38:07;102212.84;;;6.86;100.00
59513;BME280;45330;51.634;5.562;2024-03-06T10:40:37;102222.53;;;6.93;100.00
59513;BME280;45330;51.634;5.562;2024-03-06T10:43:05;102217.50;;;6.96;100.00
59513;BME280;45330;51.634;5.562;2024-03-06T10:48:07;102218.66;;;7.06;100.00
59513;BME280;45330;51.634;5.562;2024-03-06T10:50:33;102218.22;;;7.21;100.00
59513;BME280;45330;51.634;5.562;2024-03-06T10:52:59;102221.19;;;7.33;100.00
59513;BME280;45330;51.634;5.562;2024-03-06T10:55:27;102226.69;;;7.44;100.00
59513;BME280;45330;51.634;5.562;2024-03-06T10:57:54;102231.06;;;7.47;100.00
59513;BME280;45330;51.634;5.562;2024-03-06T11:00:22;102188.25;;;7.29;100.00
59513;BME280;45330;51.634;5.562;2024-03-06T11:02:48;102225.31;;;7.57;100.00
59513;BME280;45330;51.634;5.562;2024-03-06T11:05:15;102224.59;;;7.63;100.00
59513;BME280;45330;51.634;5.562;2024-03-06T11:07:41;102219.66;;;7.72;100.00
59513;BME280;45330;51.634;5.562;2024-03-06T11:10:07;102230.34;;;7.83;100.00
59513;BME280;45330;51.634;5.562;2024-03-06T11:12:42;102224.47;;;7.90;100.00
59513;BME280;45330;51.634;5.562;2024-03-06T11:15:13;102226.59;;;8.03;100.00
59513;BME280;45330;51.634;5.562;2024-03-06T11:17:39;102221.59;;;8.11;100.00
59513;BME280;45330;51.634;5.562;2024-03-06T11:28:36;102231.81;;;8.38;100.00
59513;BME280;45330;51.634;5.562;2024-03-06T11:31:06;102240.56;;;8.44;100.00
59513;BME280;45330;51.634;5.562;2024-03-06T11:33:35;102238.03;;;8.45;100.00
59513;BME280;45330;51.634;5.562;2024-03-06T11:36:25;102240.75;;;8.48;100.00
59513;BME280;45330;51.634;5.562;2024-03-06T11:39:01;102242.69;;;8.57;100.00
59513;BME280;45330;51.634;5.562;2024-03-06T11:44:02;102232.69;;;8.72;100.00
59513;BME280;45330;51.634;5.562;2024-03-06T11:46:44;102243.31;;;8.83;100.00
59513;BME280;45330;51.634;5.562;2024-03-06T11:49:22;102230.22;;;8.79;100.00
59513;BME280;45330;51.634;5.562;2024-03-06T11:51:55;102245.38;;;8.98;100.00
59513;BME280;45330;51.634;5.562;2024-03-06T11:54:22;102247.34;;;9.08;100.00
59513;BME280;45330;51.634;5.562;2024-03-06T11:56:50;102251.91;;;9.19;100.00
59513;BME280;45330;51.634;5.562;2024-03-06T11:59:24;102251.19;;;9.26;100.00
59513;BME280;45330;51.634;5.562;2024-03-06T12:01:51;102251.34;;;9.34;100.00
59513;BME280;45330;51.634;5.562;2024-03-06T12:04:18;102249.78;;;9.40;100.00
59513;BME280;45330;51.634;5.562;2024-03-06T12:06:44;102251.81;;;9.54;100.00
59513;BME280;45330;51.634;5.562;2024-03-06T12:09:09;102240.69;;;9.61;100.00
59513;BME280;45330;51.634;5.562;2024-03-06T12:11:37;102244.28;;;9.68;100.00
59513;BME280;45330;51.634;5.562;2024-03-06T12:14:03;102252.19;;;9.72;100.00
59513;BME280;45330;51.634;5.562;2024-03-06T12:16:28;102242.81;;;9.81;100.00
59513;BME280;45330;51.634;5.562;2024-03-06T12:18:58;102244.72;;;9.91;100.00
59513;BME280;45330;51.634;5.562;2024-03-06T12:21:31;102243.25;;;10.05;100.00
59513;BME280;45330;51.634;5.562;2024-03-06T12:24:04;102242.59;;;10.16;100.00
59513;BME280;45330;51.634;5.562;2024-03-06T12:26:29;102242.69;;;10.20;100.00
59513;BME280;45330;51.634;5.562;2024-03-06T12:29:04;102242.91;;;10.33;100.00
59513;BME280;45330;51.634;5.562;2024-03-06T12:31:31;102243.75;;;10.32;100.00
59513;BME280;45330;51.634;5.562;2024-03-06T12:33:57;102239.25;;;10.23;100.00
59513;BME280;45330;51.634;5.562;2024-03-06T12:36:25;102237.25;;;10.09;100.00
59513;BME280;45330;51.634;5.562;2024-03-06T12:39:09;102243.44;;;10.15;100.00
59513;BME280;45330;51.634;5.562;2024-03-06T12:41:41;102247.91;;;10.22;100.00
59513;BME280;45330;51.634;5.562;2024-03-06T12:44:08;102240.16;;;10.26;100.00
59513;BME280;45330;51.634;5.562;2024-03-06T12:46:33;102239.41;;;10.32;100.00
59513;BME280;45330;51.634;5.562;2024-03-06T12:48:59;102239.50;;;10.35;100.00
59513;BME280;45330;51.634;5.562;2024-03-06T12:51:25;102235.16;;;10.36;100.00
59513;BME280;45330;51.634;5.562;2024-03-06T12:53:50;102239.41;;;10.34;100.00
59513;BME280;45330;51.634;5.562;2024-03-06T12:56:16;102235.94;;;10.32;100.00
59513;BME280;45330;51.634;5.562;2024-03-06T12:58:42;102217.63;;;10.25;100.00
59513;BME280;45330;51.634;5.562;2024-03-06T13:01:07;102232.63;;;10.40;100.00